createdAt,value
2022-12-11T00:02:24.684Z,85.2462832876717
2022-12-11T00:07:29.965Z,85.34627996987082
2022-12-11T00:12:36.169Z,85.5457544564566
2022-12-11T00:17:41.643Z,85.36904051995026
2022-12-11T00:22:47.617Z,85.5542083189253
2022-12-11T00:27:52.889Z,85.29194670183601
2022-12-11T00:32:59.116Z,85.31467291727469
2022-12-11T00:38:04.337Z,84.95995900752486
2022-12-11T00:43:09.583Z,85.57390655902697
2022-12-11T00:48:14.810Z,85.25386566788724
2022-12-11T00:53:20.049Z,85.05649282431563
2022-12-11T00:58:26.302Z,85.07181580208612
2022-12-11T01:03:31.541Z,85.30467867640436
2022-12-11T01:08:41.774Z,85.12634041385252
2022-12-11T01:13:47.959Z,85.21381674682436
2022-12-11T01:18:53.252Z,85.19223550808742
2022-12-11T01:23:58.505Z,85.29194670183601
2022-12-11T01:29:07.655Z,85.1934067606873
2022-12-11T01:34:14.059Z,84.898027875497
2022-12-11T01:39:19.136Z,84.93950528566573
2022-12-11T01:45:37.257Z,84.91025020243804
2022-12-11T01:50:45.481Z,85.074392429697
2022-12-11T01:55:53.661Z,85.05223858486792
2022-12-11T02:00:59.347Z,85.1630268556935
2022-12-11T02:06:04.169Z,85.22128448568867
2022-12-11T02:11:20.349Z,85.20055015582669
2022-12-11T02:16:33.619Z,85.15820820014959
2022-12-11T02:21:48.771Z,85.01526920259697
2022-12-11T02:27:21.960Z,85.17156524116655
2022-12-11T02:32:34.575Z,84.80130017475932
2022-12-11T02:37:45.403Z,84.80475934971298
2022-12-11T02:48:03.882Z,84.53731316511686
2022-12-11T02:53:14.085Z,84.37611256932678
2022-12-11T02:58:28.278Z,84.54816132250295
2022-12-11T03:03:33.530Z,84.15813189710133
2022-12-11T03:08:39.785Z,84.19682474414151
2022-12-11T03:13:46.961Z,84.05098522228158
2022-12-11T03:19:08.202Z,83.82176427903359
2022-12-11T03:24:19.829Z,83.89727714102325
2022-12-11T03:29:30.597Z,83.67652148653768
2022-12-11T03:34:44.830Z,83.70279179870586
2022-12-11T03:45:08.522Z,83.52113245002293
2022-12-11T03:50:15.488Z,83.44526196449131
2022-12-11T03:55:23.762Z,83.24297004430515
2022-12-11T04:00:29.997Z,83.11855023590401
2022-12-11T04:05:43.255Z,83.12703616915599
2022-12-11T04:10:49.409Z,83.11032512148972
2022-12-11T04:15:54.787Z,83.12192289857111
2022-12-11T04:20:59.947Z,82.9925351570755
2022-12-11T04:26:06.140Z,82.98413872074501
2022-12-11T04:31:17.721Z,82.84348478005244
2022-12-11T04:36:22.611Z,82.64010912835995
2022-12-11T04:41:31.800Z,82.6941867524386
2022-12-11T04:46:38.200Z,82.53470906851415
2022-12-11T04:51:43.285Z,82.53036767967343
2022-12-11T04:56:49.560Z,82.24711446492125
2022-12-11T05:01:56.263Z,82.32566869664059
2022-12-11T05:07:02.008Z,82.35714835774698
2022-12-11T05:12:08.209Z,82.34878917431655
2022-12-11T05:17:18.459Z,82.31217185919108
2022-12-11T05:22:31.644Z,82.38456301505289
2022-12-11T05:27:36.923Z,82.09637188256012
2022-12-11T05:32:47.102Z,82.0245451609341
2022-12-11T05:37:52.386Z,82.2555762238494
2022-12-11T05:42:57.626Z,82.09070139822816
2022-12-11T05:48:02.819Z,82.11166017682787
2022-12-11T05:53:08.076Z,82.1180981489306
2022-12-11T05:58:13.344Z,82.07910719765911
2022-12-11T06:03:24.533Z,81.93875364293629
2022-12-11T06:08:29.939Z,81.90030981917718
2022-12-11T06:13:35.039Z,81.89896386142777
2022-12-11T06:18:41.686Z,81.84386799191817
2022-12-11T06:23:47.439Z,81.9086330300169
2022-12-11T06:28:52.751Z,81.95110224425822
2022-12-11T06:33:57.975Z,81.98953649293732
2022-12-11T06:39:03.257Z,81.84467194235822
2022-12-11T06:44:09.419Z,81.84521145444543
2022-12-11T06:49:15.709Z,81.72322295333267
2022-12-11T06:54:25.870Z,81.78985793146795
2022-12-11T06:59:31.085Z,81.930659518085
2022-12-11T07:04:36.372Z,81.70254434825563
2022-12-11T07:09:41.605Z,81.84682222639246
2022-12-11T07:14:46.847Z,81.62517391053369
2022-12-11T07:19:52.049Z,81.6208709668573
2022-12-11T07:24:58.301Z,81.64668409140052
2022-12-11T07:30:03.573Z,81.61310964452748
2022-12-11T07:35:09.120Z,81.64639943060983
2022-12-11T07:40:14.411Z,81.49541064792034
2022-12-11T07:45:19.252Z,81.44224999575077
2022-12-11T07:50:29.538Z,81.52821625671014
2022-12-11T07:55:34.754Z,81.44122191848871
2022-12-11T08:00:44.964Z,81.38052886411081
2022-12-11T08:05:51.204Z,81.4766578999567
2022-12-11T08:10:56.392Z,81.32920216611159
2022-12-11T08:16:03.644Z,81.27414823528022
2022-12-11T08:21:11.898Z,81.38505743301035
2022-12-11T08:26:18.131Z,81.36489797721636
2022-12-11T08:31:25.374Z,81.49514376095875
2022-12-11T08:36:30.586Z,81.2106740987475
2022-12-11T08:41:41.805Z,81.15621843800247
2022-12-11T08:46:48.214Z,81.18633186537765
2022-12-11T08:51:54.246Z,81.15091656995095
2022-12-11T08:57:00.492Z,81.21883107151714
2022-12-11T09:02:05.796Z,81.03334229275728
2022-12-11T09:07:11.004Z,81.1273085237121
2022-12-11T09:12:16.234Z,81.1554930907092
2022-12-11T09:17:21.735Z,81.15648350449088
2022-12-11T09:22:32.663Z,81.05061527566659
2022-12-11T09:28:18.781Z,81.06198286145833
2022-12-11T09:33:24.033Z,81.00029481363356
2022-12-11T09:38:29.285Z,80.73085366887095
2022-12-11T09:43:47.772Z,80.79404146203923
2022-12-11T09:48:54.724Z,80.8380922741643
2022-12-11T09:54:03.968Z,80.84346722982492
2022-12-11T09:59:18.159Z,80.76480368898379
2022-12-11T10:04:42.366Z,80.81659236485754
2022-12-11T10:10:00.555Z,80.78945460498119
2022-12-11T10:15:25.749Z,80.6135246605887
2022-12-11T10:20:35.948Z,80.69925828788496
2022-12-11T10:25:50.159Z,80.77136748325805
2022-12-11T10:31:00.542Z,80.62137469051865
2022-12-11T10:36:09.623Z,80.56421939138328
2022-12-11T10:41:18.880Z,80.56604875274593
2022-12-11T10:51:37.347Z,80.4249762313669
2022-12-11T10:56:52.701Z,80.3725195574703
2022-12-11T11:12:27.177Z,80.30159211893941
2022-12-11T11:17:35.410Z,80.14847287212787
2022-12-11T12:57:11.448Z,77.65345131748812
2022-12-11T13:06:17.114Z,69.59031829042952
2022-12-11T13:11:34.314Z,76.04749061376944
2022-12-11T13:16:41.555Z,78.33225307980699
2022-12-11T13:47:55.875Z,77.63314281822484
2022-12-11T13:53:04.090Z,80.36564878103148
2022-12-11T13:58:19.273Z,81.47009775356771
2022-12-11T14:05:14.492Z,79.55835055586128
2022-12-11T15:07:58.908Z,65.48310267979865
2022-12-11T15:13:36.027Z,63.184248202992926
2022-12-11T15:18:25.303Z,66.02977768050052
2022-12-11T15:23:53.511Z,65.26351681300486
2022-12-11T15:29:28.612Z,65.06547373069063
2022-12-11T15:35:40.692Z,63.443881192873754
2022-12-11T15:41:18.874Z,64.78966471252048
2022-12-11T15:46:19.211Z,61.63578777172798
2022-12-11T15:51:19.382Z,62.661643083864895
2022-12-11T15:56:19.630Z,61.55931591305112
2022-12-11T16:02:13.765Z,62.27374222513403
2022-12-11T17:50:53.454Z,71.31595108552872
2022-12-11T18:10:08.552Z,71.71451104912937
2022-12-11T18:15:10.139Z,70.30549275259243
2022-12-11T18:50:14.522Z,78.07307615475736
2022-12-11T18:55:19.806Z,83.01849202443275
2022-12-11T19:00:21.096Z,84.11267548960424
2022-12-11T19:05:37.397Z,82.95885462138642
2022-12-11T19:10:46.617Z,83.0011475050261
2022-12-11T19:15:50.729Z,81.79547396129561
2022-12-11T19:21:01.584Z,79.9602641068805
2022-12-11T19:26:04.188Z,77.37249788918886
2022-12-11T19:31:04.523Z,75.40673568942023
2022-12-11T19:36:06.670Z,75.85800747766214
2022-12-11T19:41:07.919Z,74.57960207855082
2022-12-11T19:46:09.168Z,75.14989481823152
2022-12-11T19:51:10.418Z,74.62858853163068
2022-12-11T19:56:10.667Z,73.77366251000639
2022-12-11T20:01:18.953Z,73.88815393049181
2022-12-11T20:06:18.110Z,72.57296643871493
2022-12-11T20:11:19.421Z,72.57079071110675
2022-12-11T20:16:28.923Z,72.66723645163374
2022-12-11T20:21:39.805Z,73.91229451460228
2022-12-11T20:26:40.281Z,73.07627609220057
2022-12-11T20:31:40.425Z,72.2195051768193
2022-12-11T20:36:40.577Z,71.60579403653094
2022-12-11T20:41:40.818Z,71.41816628599689
2022-12-11T20:46:41.081Z,70.05104285091687
2022-12-11T20:51:40.377Z,70.47448402233661
2022-12-11T20:56:39.567Z,69.3165930347505
2022-12-11T21:01:40.980Z,67.45192414743121
2022-12-11T21:06:41.057Z,70.90306535781427
2022-12-11T21:11:42.421Z,70.8590900613401
2022-12-11T21:16:42.592Z,69.29139938855874
2022-12-11T21:21:41.855Z,71.17737665560935
2022-12-11T21:26:42.104Z,72.14357607317682
2022-12-11T21:31:42.374Z,72.5393716577051
2022-12-11T21:36:41.579Z,73.29546961597813
2022-12-11T21:41:42.809Z,73.73656847434546
2022-12-11T21:46:43.106Z,73.40372754714953
2022-12-11T21:51:47.031Z,73.59025419975491
2022-12-11T21:56:48.567Z,73.29419096192741
2022-12-11T22:02:25.832Z,73.35639537250937
2022-12-11T22:08:02.005Z,73.18733029086401
2022-12-11T22:13:48.029Z,71.75528594313361
2022-12-11T22:18:48.308Z,72.57825153442953
2022-12-11T22:23:48.533Z,72.8344867096285
2022-12-11T22:28:48.808Z,72.69292858823044
2022-12-11T22:33:45.038Z,73.78119444432015
2022-12-11T22:38:45.268Z,75.98112713726569
2022-12-11T22:43:45.533Z,78.17609713686245
2022-12-11T22:48:45.788Z,79.66017505693706
2022-12-11T22:53:45.999Z,80.33768747087663
2022-12-11T22:58:31.306Z,81.00690456407925
2022-12-11T23:02:50.823Z,82.47941603869296
2022-12-11T23:08:26.985Z,82.32020036740937
2022-12-11T23:13:23.075Z,82.27300306523101
2022-12-11T23:18:19.405Z,83.01942170092518
2022-12-11T23:23:15.624Z,83.45294945275946
2022-12-11T23:27:31.932Z,83.07195225726956
2022-12-11T23:32:32.217Z,82.87740611362774
2022-12-11T23:37:32.491Z,82.56909841146829
2022-12-11T23:42:32.742Z,82.86816682796365
2022-12-11T23:47:32.953Z,82.86678613626722
2022-12-11T23:52:33.182Z,82.96976441307287
2022-12-11T23:57:33.605Z,82.77368796428367
